createdAt,value
2022-08-30T00:01:42.594Z,99271.20
2022-08-30T00:04:18.532Z,99271.60
2022-08-30T00:06:54.406Z,99272.20
2022-08-30T00:09:32.286Z,99271.60
2022-08-30T00:12:09.665Z,99274.80
2022-08-30T00:14:45.724Z,99272.60
2022-08-30T00:17:21.976Z,99272.00
2022-08-30T00:19:58.046Z,99274.60
2022-08-30T00:22:34.000Z,99279.00
2022-08-30T00:25:12.637Z,99275.40
2022-08-30T00:27:49.111Z,99274.40
2022-08-30T00:30:26.214Z,99278.00
2022-08-30T00:33:02.507Z,99280.40
2022-08-30T00:35:40.061Z,99284.80
2022-08-30T00:38:17.520Z,99284.00
2022-08-30T00:40:54.448Z,99285.00
2022-08-30T00:43:36.573Z,99286.60
2022-08-30T00:46:13.899Z,99283.60
2022-08-30T00:48:53.009Z,99284.40
2022-08-30T00:51:29.243Z,99280.60
2022-08-30T00:54:07.038Z,99281.00
2022-08-30T00:56:43.240Z,99277.20
2022-08-30T00:59:20.129Z,99275.40
2022-08-30T01:01:56.730Z,99275.80
2022-08-30T01:04:35.197Z,99276.40
2022-08-30T01:07:12.080Z,99276.00
2022-08-30T01:09:48.062Z,99274.40
2022-08-30T01:12:24.694Z,99269.60
2022-08-30T01:15:01.444Z,99267.20
2022-08-30T01:17:39.002Z,99270.20
2022-08-30T01:20:25.408Z,99268.60
2022-08-30T01:23:17.039Z,99268.80
2022-08-30T01:25:56.255Z,99265.60
2022-08-30T01:28:34.237Z,99261.60
2022-08-30T01:31:11.130Z,99258.00
2022-08-30T01:33:47.665Z,99260.20
2022-08-30T01:36:25.332Z,99253.40
2022-08-30T01:39:02.571Z,99258.00
2022-08-30T01:41:39.817Z,99262.80
2022-08-30T01:44:17.445Z,99261.00
2022-08-30T01:46:53.660Z,99260.60
2022-08-30T01:49:29.925Z,99256.80
2022-08-30T01:52:07.060Z,99256.40
2022-08-30T01:54:46.732Z,99260.60
2022-08-30T01:57:26.937Z,99258.00
2022-08-30T02:00:03.167Z,99252.20
2022-08-30T02:02:47.653Z,99253.40
2022-08-30T02:05:24.015Z,99253.60
2022-08-30T02:08:00.273Z,99253.40
2022-08-30T02:10:37.031Z,99249.40
2022-08-30T02:13:13.159Z,99247.20
2022-08-30T02:15:49.193Z,99246.60
2022-08-30T02:18:26.447Z,99243.60
2022-08-30T02:21:02.418Z,99245.80
2022-08-30T02:23:38.798Z,99244.60
2022-08-30T02:26:16.423Z,99245.40
2022-08-30T02:28:53.968Z,99246.20
2022-08-30T02:31:31.255Z,99245.80
2022-08-30T02:34:07.963Z,99241.20
2022-08-30T02:36:44.249Z,99241.80
2022-08-30T02:39:20.778Z,99242.40
2022-08-30T02:41:57.054Z,99238.60
2022-08-30T02:44:32.989Z,99235.80
2022-08-30T02:47:09.334Z,99235.40
2022-08-30T02:49:45.250Z,99237.00
2022-08-30T02:52:25.942Z,99250.60
2022-08-30T02:55:04.044Z,99245.60
2022-08-30T02:57:40.722Z,99241.60
2022-08-30T03:00:22.748Z,99248.00
2022-08-30T03:02:59.143Z,99244.40
2022-08-30T03:05:35.397Z,99243.80
2022-08-30T03:08:16.335Z,99245.40
2022-08-30T03:10:52.891Z,99239.00
2022-08-30T03:13:29.861Z,99239.00
2022-08-30T03:16:06.461Z,99239.60
2022-08-30T03:18:43.345Z,99243.60
2022-08-30T03:21:20.851Z,99246.20
2022-08-30T03:23:56.966Z,99247.40
2022-08-30T03:26:32.934Z,99250.80
2022-08-30T03:29:09.705Z,99249.60
2022-08-30T03:31:52.971Z,99246.40
2022-08-30T03:34:30.568Z,99253.20
2022-08-30T03:37:06.786Z,99258.60
2022-08-30T03:39:45.390Z,99253.60
2022-08-30T03:42:21.645Z,99259.80
2022-08-30T03:45:01.533Z,99257.80
2022-08-30T03:47:37.795Z,99260.40
2022-08-30T03:50:19.046Z,99264.00
2022-08-30T03:52:55.031Z,99263.00
2022-08-30T03:55:32.403Z,99261.80
2022-08-30T03:58:08.415Z,99265.80
2022-08-30T04:00:44.487Z,99271.20
2022-08-30T04:03:25.846Z,99275.80
2022-08-30T04:06:02.298Z,99277.00
2022-08-30T04:08:38.959Z,99271.60
2022-08-30T04:11:16.540Z,99277.40
2022-08-30T04:13:53.468Z,99280.60
2022-08-30T04:16:29.890Z,99279.60
2022-08-30T04:19:06.143Z,99281.20
2022-08-30T04:21:43.709Z,99280.40
2022-08-30T04:24:19.891Z,99282.00
2022-08-30T04:26:55.856Z,99288.00
2022-08-30T04:29:32.016Z,99290.20
2022-08-30T04:32:08.894Z,99293.60
2022-08-30T04:34:45.419Z,99295.20
2022-08-30T04:37:21.384Z,99297.20
2022-08-30T04:40:00.784Z,99297.00
2022-08-30T04:42:39.083Z,99297.40
2022-08-30T04:45:18.815Z,99300.00
2022-08-30T04:47:56.401Z,99302.00
2022-08-30T04:50:32.568Z,99301.00
2022-08-30T04:53:08.891Z,99311.80
2022-08-30T04:55:45.848Z,99310.80
2022-08-30T04:58:21.972Z,99316.00
2022-08-30T05:00:58.020Z,99317.00
2022-08-30T05:03:34.082Z,99319.60
2022-08-30T05:06:14.137Z,99318.20
2022-08-30T05:08:50.881Z,99318.60
2022-08-30T05:11:28.002Z,99320.80
2022-08-30T05:14:04.352Z,99321.60
2022-08-30T05:16:41.570Z,99320.60
2022-08-30T05:19:17.779Z,99327.80
2022-08-30T05:21:53.657Z,99326.80
2022-08-30T05:24:29.718Z,99327.00
2022-08-30T05:27:05.905Z,99329.40
2022-08-30T05:29:41.923Z,99336.00
2022-08-30T05:32:18.016Z,99335.40
2022-08-30T05:34:54.068Z,99341.60
2022-08-30T05:37:30.017Z,99338.40
2022-08-30T05:40:10.972Z,99337.80
2022-08-30T05:42:48.749Z,99336.00
2022-08-30T05:45:25.302Z,99340.40
2022-08-30T05:48:02.029Z,99341.80
2022-08-30T05:50:39.900Z,99338.40
2022-08-30T05:53:16.003Z,99341.60
2022-08-30T05:55:52.002Z,99343.20
2022-08-30T05:58:27.881Z,99355.40
2022-08-30T06:01:04.871Z,99357.60
2022-08-30T06:03:40.965Z,99358.20
2022-08-30T06:06:17.166Z,99357.60
2022-08-30T06:08:53.955Z,99361.80
2022-08-30T06:11:31.254Z,99363.60
2022-08-30T06:14:08.351Z,99364.80
2022-08-30T06:16:46.098Z,99369.40
2022-08-30T06:19:23.309Z,99368.20
2022-08-30T06:22:01.147Z,99369.40
2022-08-30T06:24:56.530Z,99367.20
2022-08-30T06:27:33.341Z,99368.40
2022-08-30T06:30:13.724Z,99371.20
2022-08-30T06:32:49.722Z,99374.80
2022-08-30T06:35:26.212Z,99367.20
2022-08-30T06:38:02.815Z,99369.40
2022-08-30T06:40:40.596Z,99370.00
2022-08-30T06:43:16.557Z,99373.40
2022-08-30T06:45:52.813Z,99376.40
2022-08-30T06:48:28.806Z,99374.40
2022-08-30T06:51:05.143Z,99377.80
2022-08-30T06:53:42.227Z,99376.80
2022-08-30T06:56:19.585Z,99379.40
2022-08-30T06:58:56.079Z,99386.40
2022-08-30T07:01:34.154Z,99389.60
2022-08-30T07:04:12.955Z,99390.20
2022-08-30T07:06:50.009Z,99389.80
2022-08-30T07:09:29.409Z,99390.00
2022-08-30T07:12:11.066Z,99392.40
2022-08-30T07:14:47.395Z,99389.80
2022-08-30T07:17:41.620Z,99395.00
2022-08-30T07:20:18.757Z,99392.40
2022-08-30T07:22:54.889Z,99400.00
2022-08-30T07:25:30.808Z,99399.80
2022-08-30T07:28:07.602Z,99399.40
2022-08-30T07:30:45.307Z,99399.40
2022-08-30T07:33:21.247Z,99393.40
2022-08-30T07:35:57.220Z,99398.80
2022-08-30T07:38:33.909Z,99393.80
2022-08-30T07:41:10.543Z,99393.20
2022-08-30T07:43:46.478Z,99390.20
2022-08-30T07:46:24.336Z,99392.20
2022-08-30T07:49:04.160Z,99392.00
2022-08-30T07:51:41.939Z,99394.20
2022-08-30T07:54:18.314Z,99391.40
2022-08-30T07:56:56.005Z,99390.80
2022-08-30T07:59:35.582Z,99393.20
2022-08-30T08:02:12.466Z,99393.20
2022-08-30T08:04:48.928Z,99393.00
2022-08-30T08:07:24.946Z,99392.80
2022-08-30T08:10:01.044Z,99394.80
2022-08-30T08:12:37.883Z,99397.40
2022-08-30T08:15:15.625Z,99395.40
2022-08-30T08:17:51.557Z,99399.40
2022-08-30T08:20:27.991Z,99399.60
2022-08-30T08:23:05.351Z,99400.40
2022-08-30T08:25:44.115Z,99398.00
2022-08-30T08:28:20.896Z,99404.60
2022-08-30T08:30:57.617Z,99404.40
2022-08-30T08:33:33.635Z,99403.60
2022-08-30T08:36:10.381Z,99406.60
2022-08-30T08:38:46.766Z,99404.80
2022-08-30T08:41:43.148Z,99406.00
2022-08-30T08:44:36.216Z,99403.40
2022-08-30T08:47:22.332Z,99406.20
2022-08-30T08:50:04.155Z,99405.80
2022-08-30T08:53:24.874Z,99405.00
2022-08-30T08:56:12.821Z,99407.80
2022-08-30T08:58:53.929Z,99405.40
2022-08-30T09:01:34.043Z,99409.40
2022-08-30T09:04:20.728Z,99408.80
2022-08-30T09:07:04.101Z,99401.00
2022-08-30T09:09:42.722Z,99405.60
2022-08-30T09:12:19.442Z,99402.60
2022-08-30T09:15:03.852Z,99400.20
2022-08-30T09:17:59.345Z,99397.80
2022-08-30T09:20:41.587Z,99401.00
2022-08-30T09:23:37.151Z,99399.00
2022-08-30T09:26:13.900Z,99400.20
2022-08-30T09:28:54.463Z,99401.20
2022-08-30T09:31:33.659Z,99397.80
2022-08-30T09:34:19.463Z,99399.20
2022-08-30T09:36:57.694Z,99394.80
2022-08-30T09:39:39.579Z,99395.80
2022-08-30T09:42:26.466Z,99394.40
2022-08-30T09:45:11.963Z,99398.40
2022-08-30T09:47:49.077Z,99396.80
2022-08-30T09:50:28.395Z,99394.00
2022-08-30T09:53:23.459Z,99395.80
2022-08-30T09:56:12.965Z,99398.60
2022-08-30T09:59:10.170Z,99390.80
2022-08-30T10:01:54.596Z,99390.20
2022-08-30T10:04:48.317Z,99383.20
2022-08-30T10:07:35.181Z,99385.00
2022-08-30T10:10:23.121Z,99379.40
2022-08-30T10:13:27.369Z,99373.80
2022-08-30T10:16:22.858Z,99375.40
2022-08-30T10:19:20.044Z,99377.80
2022-08-30T10:22:06.071Z,99379.40
2022-08-30T10:24:51.522Z,99375.00
2022-08-30T10:27:35.312Z,99375.20
2022-08-30T10:30:16.680Z,99374.20
2022-08-30T10:32:59.846Z,99365.40
2022-08-30T10:35:41.799Z,99368.80
2022-08-30T10:38:27.848Z,99367.60
2022-08-30T10:41:22.037Z,99367.80
2022-08-30T10:44:07.722Z,99365.60
2022-08-30T10:47:03.726Z,99367.60
2022-08-30T10:49:45.941Z,99356.20
2022-08-30T10:52:37.702Z,99351.40
2022-08-30T10:55:24.250Z,99352.80
2022-08-30T10:58:05.271Z,99356.60
2022-08-30T11:00:57.034Z,99351.20
2022-08-30T11:08:22.189Z,99348.20
2022-08-30T11:11:13.450Z,99345.40
2022-08-30T11:13:53.545Z,99346.60
2022-08-30T11:16:46.578Z,99350.20
2022-08-30T11:19:35.927Z,99351.40
2022-08-30T11:22:28.899Z,99355.00
2022-08-30T11:25:15.904Z,99352.00
2022-08-30T11:27:58.915Z,99358.40
2022-08-30T11:31:07.228Z,99357.20
2022-08-30T11:33:55.451Z,99356.40
2022-08-30T11:37:12.268Z,99358.60
2022-08-30T11:40:06.638Z,99354.20
2022-08-30T11:42:52.921Z,99354.20
2022-08-30T11:45:55.739Z,99351.60
2022-08-30T11:48:57.856Z,99346.40
2022-08-30T11:52:26.549Z,99345.80
2022-08-30T11:55:56.579Z,99344.40
2022-08-30T11:58:51.796Z,99339.20
2022-08-30T12:01:49.953Z,99337.20
2022-08-30T12:04:48.550Z,99331.80
2022-08-30T12:08:01.717Z,99326.20
2022-08-30T12:10:47.029Z,99322.40
2022-08-30T12:13:59.193Z,99321.80
2022-08-30T12:17:03.509Z,99322.20
2022-08-30T12:19:49.122Z,99317.80
2022-08-30T12:22:28.959Z,99313.60
2022-08-30T12:25:21.396Z,99306.20
2022-08-30T12:28:15.531Z,99301.80
2022-08-30T12:30:53.092Z,99291.60
2022-08-30T12:33:44.257Z,99292.60
2022-08-30T12:36:40.477Z,99289.60
2022-08-30T12:39:23.083Z,99284.60
2022-08-30T12:42:11.506Z,99282.20
2022-08-30T12:44:58.474Z,99280.80
2022-08-30T12:47:45.349Z,99280.00
2022-08-30T12:50:28.637Z,99272.60
2022-08-30T12:53:13.705Z,99272.60
2022-08-30T12:56:02.155Z,99262.60
2022-08-30T12:58:50.312Z,99259.00
2022-08-30T13:01:35.838Z,99259.20
2022-08-30T13:04:29.121Z,99254.40
2022-08-30T13:07:06.298Z,99255.80
2022-08-30T13:09:45.552Z,99251.20
2022-08-30T13:12:30.359Z,99244.00
2022-08-30T13:15:36.723Z,99247.20
2022-08-30T13:18:30.135Z,99249.20
2022-08-30T13:21:32.562Z,99247.40
2022-08-30T13:24:11.029Z,99255.60
2022-08-30T13:26:48.071Z,99249.80
2022-08-30T13:29:28.462Z,99253.80
2022-08-30T13:32:05.374Z,99248.80
2022-08-30T13:34:41.910Z,99245.60
2022-08-30T13:40:23.892Z,99249.60
2022-08-30T13:43:00.368Z,99244.60
2022-08-30T13:45:43.761Z,99244.00
2022-08-30T13:48:24.892Z,99246.00
2022-08-30T13:51:01.362Z,99245.60
2022-08-30T13:53:54.599Z,99243.80
2022-08-30T13:56:32.799Z,99240.40
2022-08-30T13:59:10.709Z,99242.20
2022-08-30T14:04:43.498Z,99230.40
2022-08-30T14:07:21.051Z,99233.40
2022-08-30T14:10:30.467Z,99227.20
2022-08-30T14:12:58.841Z,99224.40
2022-08-30T14:15:41.454Z,99221.80
2022-08-30T14:18:18.099Z,99221.60
2022-08-30T14:20:54.663Z,99218.40
2022-08-30T14:23:32.133Z,99214.80
2022-08-30T14:26:18.127Z,99210.80
2022-08-30T14:28:54.400Z,99211.40
2022-08-30T14:31:32.817Z,99211.00
2022-08-30T14:34:12.013Z,99209.20
2022-08-30T14:36:49.579Z,99208.00
2022-08-30T14:39:26.382Z,99207.80
2022-08-30T14:42:03.470Z,99207.40
2022-08-30T14:44:55.722Z,99201.00
2022-08-30T14:47:32.005Z,99206.00
2022-08-30T14:50:10.126Z,99203.20
2022-08-30T14:52:46.316Z,99208.80
2022-08-30T14:55:23.081Z,99208.80
2022-08-30T14:57:59.730Z,99204.20
2022-08-30T15:00:35.720Z,99205.80
2022-08-30T15:03:12.689Z,99205.60
2022-08-30T15:05:53.892Z,99208.00
2022-08-30T15:08:30.080Z,99205.40
2022-08-30T15:11:10.627Z,99204.00
2022-08-30T15:13:47.201Z,99203.00
2022-08-30T15:16:28.255Z,99197.60
2022-08-30T15:19:08.322Z,99192.40
2022-08-30T15:21:48.800Z,99195.20
2022-08-30T15:24:29.447Z,99196.60
2022-08-30T15:27:06.751Z,99198.60
2022-08-30T15:29:42.627Z,99197.20
2022-08-30T15:32:18.540Z,99201.40
2022-08-30T15:34:56.045Z,99197.80
2022-08-30T15:37:32.266Z,99198.80
2022-08-30T15:40:10.860Z,99198.40
2022-08-30T15:42:47.680Z,99195.20
2022-08-30T15:45:25.620Z,99199.80
2022-08-30T15:48:03.711Z,99198.00
2022-08-30T15:50:40.388Z,99199.00
2022-08-30T15:53:16.705Z,99194.20
2022-08-30T15:55:53.501Z,99199.20
2022-08-30T15:58:29.754Z,99195.60
2022-08-30T16:01:06.205Z,99193.80
2022-08-30T16:03:44.872Z,99190.20
2022-08-30T16:06:25.631Z,99193.80
2022-08-30T16:09:03.825Z,99183.00
2022-08-30T16:11:42.104Z,99186.80
2022-08-30T16:14:17.957Z,99182.60
2022-08-30T16:16:57.477Z,99177.80
2022-08-30T16:19:33.726Z,99173.80
2022-08-30T16:22:11.486Z,99176.00
2022-08-30T16:24:48.289Z,99177.80
2022-08-30T16:27:25.043Z,99178.60
2022-08-30T16:30:01.297Z,99179.20
2022-08-30T16:32:37.565Z,99176.20
2022-08-30T16:35:14.710Z,99175.80
2022-08-30T16:37:50.609Z,99173.60
2022-08-30T16:40:26.810Z,99176.80
2022-08-30T16:43:03.956Z,99174.40
2022-08-30T16:45:45.432Z,99176.00
2022-08-30T16:48:21.802Z,99174.20
2022-08-30T16:50:58.728Z,99173.80
2022-08-30T16:53:35.050Z,99172.20
2022-08-30T16:56:17.374Z,99176.40
2022-08-30T16:59:00.766Z,99177.60
2022-08-30T17:01:41.229Z,99178.80
2022-08-30T17:04:18.323Z,99180.40
2022-08-30T17:06:56.335Z,99185.40
2022-08-30T17:09:35.718Z,99186.60
2022-08-30T17:12:12.548Z,99186.40
2022-08-30T17:14:51.475Z,99193.40
2022-08-30T17:17:27.494Z,99190.60
2022-08-30T17:20:07.020Z,99197.20
2022-08-30T17:22:43.029Z,99200.20
2022-08-30T17:25:22.326Z,99201.80
2022-08-30T17:27:58.564Z,99210.40
2022-08-30T17:30:34.696Z,99217.00
2022-08-30T17:33:11.438Z,99218.60
2022-08-30T17:35:49.081Z,99221.60
2022-08-30T17:38:26.729Z,99223.60
2022-08-30T17:41:11.975Z,99221.60
2022-08-30T17:43:47.962Z,99228.40
2022-08-30T17:46:25.210Z,99235.00
2022-08-30T17:49:03.390Z,99237.80
2022-08-30T17:51:43.273Z,99241.40
2022-08-30T17:54:22.285Z,99240.80
2022-08-30T17:57:10.713Z,99247.00
2022-08-30T17:59:47.947Z,99251.40
2022-08-30T18:02:29.897Z,99251.60
2022-08-30T18:05:06.966Z,99256.80
2022-08-30T18:07:43.559Z,99263.60
2022-08-30T18:10:19.788Z,99260.60
2022-08-30T18:13:06.871Z,99260.00
2022-08-30T18:18:40.199Z,99273.40
2022-08-30T18:21:22.122Z,99278.80
2022-08-30T18:23:59.072Z,99285.40
2022-08-30T18:26:35.694Z,99282.40
2022-08-30T18:29:12.060Z,99283.60
2022-08-30T18:31:48.508Z,99279.00
2022-08-30T18:34:24.465Z,99278.80
2022-08-30T18:37:01.105Z,99284.80
2022-08-30T18:39:37.650Z,99282.40
2022-08-30T18:42:14.732Z,99284.40
2022-08-30T18:44:50.730Z,99286.20
2022-08-30T18:47:28.181Z,99286.20
2022-08-30T18:50:04.597Z,99291.80
2022-08-30T18:52:41.361Z,99288.60
2022-08-30T18:55:21.627Z,99291.00
2022-08-30T18:57:58.045Z,99291.80
2022-08-30T19:00:38.417Z,99291.40
2022-08-30T19:03:15.281Z,99298.40
2022-08-30T19:05:51.500Z,99298.20
2022-08-30T19:08:27.688Z,99299.00
2022-08-30T19:11:07.437Z,99293.40
2022-08-30T19:13:43.763Z,99289.80
2022-08-30T19:16:19.906Z,99288.20
2022-08-30T19:18:56.370Z,99291.40
2022-08-30T19:21:32.771Z,99286.40
2022-08-30T19:24:11.574Z,99285.40
2022-08-30T19:26:48.093Z,99284.40
2022-08-30T19:29:24.178Z,99284.00
2022-08-30T19:32:00.384Z,99285.40
2022-08-30T19:34:36.445Z,99285.80
2022-08-30T19:37:14.621Z,99287.20
2022-08-30T19:39:52.716Z,99289.60
2022-08-30T19:42:29.594Z,99281.40
2022-08-30T19:45:07.265Z,99282.80
2022-08-30T19:47:43.815Z,99285.80
2022-08-30T19:50:22.319Z,99285.60
2022-08-30T19:52:58.447Z,99288.80
2022-08-30T19:55:37.183Z,99291.20
2022-08-30T19:58:13.564Z,99288.60
2022-08-30T20:00:54.463Z,99290.80
2022-08-30T20:03:47.063Z,99287.00
2022-08-30T20:06:23.655Z,99283.60
2022-08-30T20:09:00.574Z,99287.00
2022-08-30T20:11:37.335Z,99282.60
2022-08-30T20:14:14.022Z,99279.20
2022-08-30T20:16:51.581Z,99286.20
2022-08-30T20:19:29.329Z,99284.60
2022-08-30T20:22:08.332Z,99285.60
2022-08-30T20:24:26.634Z,99267.60
2022-08-30T20:24:45.175Z,99284.80
2022-08-30T20:27:21.349Z,99280.40
2022-08-30T20:29:57.557Z,99273.80
2022-08-30T20:32:34.774Z,99276.60
2022-08-30T20:35:13.098Z,99273.20
2022-08-30T20:37:50.880Z,99270.60
2022-08-30T20:40:27.454Z,99280.80
2022-08-30T20:43:07.272Z,99282.60
2022-08-30T20:45:43.254Z,99281.40
2022-08-30T20:48:20.684Z,99283.20
2022-08-30T20:50:56.847Z,99283.00
2022-08-30T20:53:33.270Z,99282.60
2022-08-30T20:56:17.707Z,99282.80
2022-08-30T20:58:54.013Z,99282.40
2022-08-30T21:01:30.976Z,99283.60
2022-08-30T21:04:08.343Z,99286.80
2022-08-30T21:06:44.437Z,99288.00
2022-08-30T21:09:21.053Z,99292.20
2022-08-30T21:11:57.134Z,99288.00
2022-08-30T21:14:33.337Z,99286.80
2022-08-30T21:17:09.615Z,99288.00
2022-08-30T21:19:46.426Z,99288.20
2022-08-30T21:22:22.403Z,99286.60
2022-08-30T21:24:58.641Z,99286.20
2022-08-30T21:27:34.372Z,99289.40
2022-08-30T21:30:13.973Z,99290.60
2022-08-30T21:32:49.929Z,99293.40
2022-08-30T21:35:43.603Z,99296.80
2022-08-30T21:38:21.012Z,99299.60
2022-08-30T21:40:57.645Z,99293.20
2022-08-30T21:43:33.892Z,99296.60
2022-08-30T21:46:13.464Z,99302.20
2022-08-30T21:48:51.048Z,99298.80
2022-08-30T21:51:26.985Z,99294.80
2022-08-30T21:54:07.159Z,99296.60
2022-08-30T21:56:47.534Z,99305.40
2022-08-30T21:59:24.328Z,99313.00
2022-08-30T22:02:01.410Z,99310.60
2022-08-30T22:04:37.573Z,99309.80
2022-08-30T22:07:13.962Z,99302.40
2022-08-30T22:09:50.019Z,99301.20
2022-08-30T22:12:26.752Z,99303.60
2022-08-30T22:15:03.745Z,99300.20
2022-08-30T22:17:39.802Z,99295.00
2022-08-30T22:20:18.634Z,99289.20
2022-08-30T22:22:54.947Z,99288.00
2022-08-30T22:25:31.205Z,99287.40
2022-08-30T22:28:07.896Z,99293.80
2022-08-30T22:30:44.019Z,99295.40
2022-08-30T22:33:21.566Z,99296.40
2022-08-30T22:35:57.966Z,99296.00
2022-08-30T22:38:34.362Z,99295.40
2022-08-30T22:41:17.679Z,99296.60
2022-08-30T22:43:54.810Z,99294.60
2022-08-30T22:46:34.168Z,99292.60
2022-08-30T22:49:13.828Z,99293.20
2022-08-30T22:51:49.835Z,99289.40
2022-08-30T22:54:26.005Z,99291.00
2022-08-30T22:57:01.901Z,99292.80
2022-08-30T22:59:40.790Z,99292.20
2022-08-30T23:02:16.957Z,99293.60
2022-08-30T23:04:53.654Z,99288.60
2022-08-30T23:07:29.801Z,99289.00
2022-08-30T23:10:08.112Z,99291.20
2022-08-30T23:12:44.569Z,99292.60
2022-08-30T23:15:21.188Z,99289.80
2022-08-30T23:17:57.060Z,99295.20
2022-08-30T23:20:32.976Z,99293.80
2022-08-30T23:23:07.793Z,99292.40
2022-08-30T23:26:02.820Z,99289.60
2022-08-30T23:28:56.317Z,99284.40
2022-08-30T23:31:50.642Z,99284.60
2022-08-30T23:34:44.164Z,99282.20
2022-08-30T23:37:37.811Z,99281.40
2022-08-30T23:40:34.385Z,99281.80
2022-08-30T23:43:28.612Z,99281.80
2022-08-30T23:46:22.847Z,99279.40
2022-08-30T23:49:16.892Z,99278.00
2022-08-30T23:52:10.825Z,99278.20
2022-08-30T23:55:04.368Z,99277.20
2022-08-30T23:57:57.800Z,99274.20
